createdAt,value
2017-11-08T00:00:15.725Z,38.70
2017-11-08T00:02:43.254Z,37.00
2017-11-08T00:05:10.831Z,35.43
2017-11-08T00:07:38.360Z,41.03
2017-11-08T00:10:05.897Z,36.73
2017-11-08T00:12:33.468Z,37.20
2017-11-08T00:15:00.997Z,35.70
2017-11-08T00:17:28.519Z,40.27
2017-11-08T00:19:58.060Z,39.57
2017-11-08T00:22:25.588Z,40.00
2017-11-08T00:24:53.162Z,41.23
2017-11-08T00:27:20.681Z,39.60
2017-11-08T00:29:48.218Z,39.23
2017-11-08T00:32:15.895Z,38.17
2017-11-08T00:34:43.436Z,36.70
2017-11-08T00:37:10.956Z,30.83
2017-11-08T00:39:38.526Z,35.93
2017-11-08T00:42:06.057Z,39.20
2017-11-08T00:44:33.584Z,35.20
2017-11-08T00:47:01.314Z,24.40
2017-11-08T00:49:28.841Z,31.43
2017-11-08T00:51:56.366Z,33.40
2017-11-08T00:54:23.961Z,35.63
2017-11-08T00:56:51.476Z,43.27
2017-11-08T00:59:19.006Z,32.47
2017-11-08T01:01:47.049Z,38.30
2017-11-08T01:04:14.563Z,36.90
2017-11-08T01:06:42.094Z,38.80
2017-11-08T01:09:09.640Z,38.07
2017-11-08T01:11:37.202Z,33.00
2017-11-08T01:14:04.753Z,36.17
2017-11-08T01:16:33.320Z,33.80
2017-11-08T01:19:00.874Z,37.30
2017-11-08T01:21:28.449Z,36.77
2017-11-08T01:23:56.002Z,36.20
2017-11-08T01:26:23.519Z,35.50
2017-11-08T01:28:51.101Z,39.10
2017-11-08T01:31:18.629Z,39.57
2017-11-08T01:33:46.148Z,38.70
2017-11-08T01:36:13.724Z,30.30
2017-11-08T01:38:43.060Z,39.67
2017-11-08T01:41:16.824Z,40.97
2017-11-08T01:43:44.354Z,36.10
2017-11-08T01:46:17.105Z,38.00
2017-11-08T01:48:44.637Z,38.23
2017-11-08T01:51:14.132Z,36.47
2017-11-08T01:53:41.725Z,37.53
2017-11-08T01:56:09.313Z,34.37
2017-11-08T01:58:36.907Z,34.13
2017-11-08T02:01:04.502Z,37.60
2017-11-08T02:03:32.133Z,36.03
2017-11-08T02:05:59.656Z,35.80
2017-11-08T02:08:27.191Z,31.83
2017-11-08T02:10:54.810Z,34.23
2017-11-08T02:13:22.332Z,34.03
2017-11-08T02:15:50.611Z,35.10
2017-11-08T02:18:22.445Z,35.40
2017-11-08T02:20:50.005Z,35.60
2017-11-08T02:23:17.621Z,34.37
2017-11-08T02:25:45.332Z,35.97
2017-11-08T02:28:12.873Z,34.43
2017-11-08T02:30:40.416Z,35.27
2017-11-08T02:33:08.384Z,36.03
2017-11-08T02:35:35.951Z,32.70
2017-11-08T02:38:03.481Z,34.60
2017-11-08T02:40:31.038Z,32.53
2017-11-08T02:42:58.573Z,34.97
2017-11-08T02:45:34.793Z,34.50
2017-11-08T02:48:02.329Z,34.93
2017-11-08T02:50:30.272Z,37.13
2017-11-08T02:52:57.785Z,32.67
2017-11-08T02:55:25.320Z,36.60
2017-11-08T02:57:53.176Z,37.90
2017-11-08T03:00:20.719Z,33.07
2017-11-08T03:02:51.057Z,39.60
2017-11-08T03:05:18.661Z,34.57
2017-11-08T03:07:46.182Z,33.03
2017-11-08T03:10:13.714Z,36.17
2017-11-08T03:12:41.375Z,34.70
2017-11-08T03:15:08.906Z,35.80
2017-11-08T03:17:36.446Z,38.10
2017-11-08T03:20:04.216Z,36.00
2017-11-08T03:22:31.746Z,34.03
2017-11-08T03:24:59.283Z,35.47
2017-11-08T03:27:27.049Z,34.67
2017-11-08T03:29:54.584Z,36.80
2017-11-08T03:32:22.277Z,34.33
2017-11-08T03:34:49.862Z,33.67
2017-11-08T03:37:17.409Z,35.40
2017-11-08T03:39:44.966Z,36.83
2017-11-08T03:42:12.531Z,37.53
2017-11-08T03:44:40.189Z,37.03
2017-11-08T03:47:07.707Z,38.53
2017-11-08T03:49:35.269Z,39.20
2017-11-08T03:52:03.181Z,37.80
2017-11-08T03:54:30.716Z,37.97
2017-11-08T03:56:58.227Z,37.73
2017-11-08T03:59:25.910Z,34.77
2017-11-08T04:01:53.442Z,39.13
2017-11-08T04:04:20.970Z,37.53
2017-11-08T04:06:48.527Z,36.97
2017-11-08T04:09:16.081Z,36.40
2017-11-08T04:11:43.600Z,39.20
2017-11-08T04:14:11.336Z,36.03
2017-11-08T04:16:38.861Z,34.40
2017-11-08T04:19:06.398Z,37.10
2017-11-08T04:21:34.161Z,36.17
2017-11-08T04:24:01.712Z,34.33
2017-11-08T04:26:29.241Z,35.03
2017-11-08T04:28:56.980Z,38.60
2017-11-08T04:31:24.502Z,36.97
2017-11-08T04:33:52.040Z,37.20
2017-11-08T04:36:19.579Z,35.00
2017-11-08T04:38:47.105Z,35.17
2017-11-08T04:41:14.814Z,36.80
2017-11-08T04:43:42.328Z,35.47
2017-11-08T04:46:09.870Z,36.70
2017-11-08T04:48:38.177Z,39.50
2017-11-08T04:51:05.704Z,40.80
2017-11-08T04:53:33.229Z,39.30
2017-11-08T04:56:00.787Z,36.37
2017-11-08T04:58:28.304Z,32.73
2017-11-08T05:00:55.833Z,39.30
2017-11-08T05:03:23.397Z,40.97
2017-11-08T05:05:50.925Z,37.87
2017-11-08T05:08:18.511Z,33.23
2017-11-08T05:10:46.023Z,39.23
2017-11-08T05:13:13.588Z,34.70
2017-11-08T05:15:41.161Z,38.10
2017-11-08T05:18:08.682Z,35.30
2017-11-08T05:20:36.209Z,39.33
2017-11-08T05:23:03.792Z,37.23
2017-11-08T05:25:31.312Z,36.47
2017-11-08T05:27:58.825Z,36.30
2017-11-08T05:30:26.404Z,32.50
2017-11-08T05:32:53.941Z,37.13
2017-11-08T05:35:21.464Z,37.57
2017-11-08T05:37:49.008Z,44.07
2017-11-08T05:40:16.538Z,42.03
2017-11-08T05:42:44.083Z,34.00
2017-11-08T05:45:11.603Z,43.90
2017-11-08T05:47:39.628Z,38.53
2017-11-08T05:50:07.170Z,46.00
2017-11-08T05:52:34.697Z,37.20
2017-11-08T05:55:02.649Z,37.60
2017-11-08T05:57:30.169Z,43.37
2017-11-08T05:59:57.693Z,39.97
2017-11-08T06:02:25.265Z,45.87
2017-11-08T06:04:52.789Z,45.47
2017-11-08T06:07:20.314Z,45.40
2017-11-08T06:09:47.878Z,48.90
2017-11-08T06:12:15.395Z,45.70
2017-11-08T06:14:42.923Z,43.60
2017-11-08T06:17:10.504Z,45.40
2017-11-08T06:19:38.021Z,46.70
2017-11-08T06:22:05.540Z,44.40
2017-11-08T06:24:33.090Z,42.57
2017-11-08T06:27:00.627Z,46.30
2017-11-08T06:29:28.169Z,42.80
2017-11-08T06:31:55.717Z,33.70
2017-11-08T06:34:23.441Z,34.40
2017-11-08T06:36:50.961Z,42.27
2017-11-08T06:39:18.490Z,31.97
2017-11-08T06:41:46.242Z,42.60
2017-11-08T06:44:13.748Z,27.67
2017-11-08T06:46:41.285Z,27.20
2017-11-08T06:49:08.947Z,37.43
2017-11-08T06:51:36.472Z,37.33
2017-11-08T06:54:03.994Z,35.37
2017-11-08T06:56:31.556Z,41.43
2017-11-08T06:58:59.081Z,43.43
2017-11-08T07:01:26.672Z,40.77
2017-11-08T07:03:54.202Z,37.13
2017-11-08T07:06:21.716Z,44.97
2017-11-08T07:08:49.295Z,42.97
2017-11-08T07:11:16.830Z,40.53
2017-11-08T07:13:44.361Z,30.00
2017-11-08T07:16:11.924Z,36.30
2017-11-08T07:18:39.453Z,34.87
2017-11-08T07:21:06.973Z,33.17
2017-11-08T07:23:34.978Z,37.93
2017-11-08T07:26:02.515Z,33.17
2017-11-08T07:28:30.036Z,37.33
2017-11-08T07:30:58.014Z,38.80
2017-11-08T07:33:25.542Z,34.83
2017-11-08T07:35:53.124Z,24.27
2017-11-08T07:38:20.705Z,29.97
2017-11-08T07:40:48.225Z,31.83
2017-11-08T07:43:15.771Z,42.80
2017-11-08T07:45:43.450Z,37.10
2017-11-08T07:48:10.965Z,27.43
2017-11-08T07:50:38.480Z,33.67
2017-11-08T07:53:06.364Z,37.70
2017-11-08T07:55:39.528Z,32.33
2017-11-08T07:58:07.118Z,36.00
2017-11-08T08:00:34.641Z,34.17
2017-11-08T08:03:02.174Z,27.90
2017-11-08T08:05:29.718Z,34.17
2017-11-08T08:07:57.992Z,33.77
2017-11-08T08:10:25.720Z,31.17
2017-11-08T08:12:53.247Z,34.23
2017-11-08T08:15:20.786Z,27.80
2017-11-08T08:17:48.763Z,34.57
2017-11-08T08:20:16.284Z,32.77
2017-11-08T08:22:43.796Z,25.00
2017-11-08T08:25:11.681Z,31.07
2017-11-08T08:27:39.239Z,30.00
2017-11-08T08:30:06.761Z,31.80
2017-11-08T08:32:34.323Z,34.97
2017-11-08T08:35:01.872Z,34.50
2017-11-08T08:37:29.420Z,31.23
2017-11-08T08:39:57.121Z,30.90
2017-11-08T08:42:24.645Z,34.60
2017-11-08T08:44:52.155Z,26.40
2017-11-08T08:47:20.137Z,29.50
2017-11-08T08:49:47.670Z,32.87
2017-11-08T08:52:15.198Z,33.47
2017-11-08T08:54:43.166Z,32.67
2017-11-08T08:57:10.700Z,33.00
2017-11-08T08:59:38.226Z,33.57
2017-11-08T09:05:01.835Z,31.37
2017-11-08T09:07:29.413Z,32.30
2017-11-08T09:09:56.934Z,33.23
2017-11-08T09:12:24.461Z,32.80
2017-11-08T09:14:52.013Z,34.87
2017-11-08T09:17:19.630Z,28.00
2017-11-08T09:19:47.177Z,36.37
2017-11-08T09:22:14.695Z,33.30
2017-11-08T09:24:47.875Z,34.97
2017-11-08T09:27:15.393Z,22.10
2017-11-08T09:29:43.089Z,32.70
2017-11-08T09:32:10.603Z,27.60
2017-11-08T09:34:43.864Z,29.63
2017-11-08T09:37:11.375Z,33.67
2017-11-08T09:39:39.079Z,29.33
2017-11-08T09:42:25.234Z,23.57
2017-11-08T09:44:52.779Z,30.83
2017-11-08T09:47:20.304Z,35.67
2017-11-08T09:49:47.864Z,29.50
2017-11-08T09:52:15.394Z,34.00
2017-11-08T09:54:42.921Z,36.40
2017-11-08T09:57:11.383Z,34.60
2017-11-08T09:59:39.010Z,35.47
2017-11-08T10:02:06.531Z,40.73
2017-11-08T10:04:34.082Z,40.87
2017-11-08T10:07:01.602Z,37.33
2017-11-08T10:09:30.200Z,40.77
2017-11-08T10:12:01.747Z,41.70
2017-11-08T10:14:29.844Z,43.77
2017-11-08T10:16:57.363Z,37.53
2017-11-08T10:19:26.795Z,42.77
2017-11-08T10:21:54.345Z,39.20
2017-11-08T10:24:21.875Z,26.90
2017-11-08T10:26:49.925Z,36.00
2017-11-08T10:29:17.462Z,42.30
2017-11-08T10:31:44.976Z,42.60
2017-11-08T10:34:12.961Z,43.73
2017-11-08T10:36:40.474Z,44.77
2017-11-08T10:39:08.013Z,39.83
2017-11-08T10:41:35.699Z,36.70
2017-11-08T10:44:03.191Z,42.53
2017-11-08T10:46:30.736Z,43.23
2017-11-08T10:48:58.261Z,43.37
2017-11-08T10:51:29.433Z,42.17
2017-11-08T10:53:57.005Z,41.70
2017-11-08T10:56:24.570Z,44.40
2017-11-08T10:58:52.180Z,45.17
2017-11-08T11:01:20.671Z,41.10
2017-11-08T11:03:51.946Z,44.27
2017-11-08T11:06:19.525Z,44.93
2017-11-08T11:08:47.171Z,46.53
2017-11-08T11:11:14.697Z,43.50
2017-11-08T11:13:48.235Z,45.80
2017-11-08T11:16:16.621Z,39.63
2017-11-08T11:18:44.233Z,46.47
2017-11-08T11:21:11.790Z,47.77
2017-11-08T11:23:49.478Z,44.50
2017-11-08T11:26:17.081Z,45.50
2017-11-08T11:28:44.645Z,46.47
2017-11-08T11:31:12.215Z,44.30
2017-11-08T11:33:39.789Z,44.67
2017-11-08T11:36:07.326Z,51.30
2017-11-08T11:38:36.779Z,44.53
2017-11-08T11:41:04.324Z,44.77
2017-11-08T11:43:31.876Z,47.57
2017-11-08T11:45:59.588Z,46.20
2017-11-08T11:48:33.674Z,49.90
2017-11-08T11:51:06.925Z,47.33
2017-11-08T11:53:34.474Z,48.63
2017-11-08T11:56:02.041Z,42.80
2017-11-08T11:58:29.632Z,50.10
2017-11-08T12:00:57.253Z,47.70
2017-11-08T12:03:24.826Z,47.67
2017-11-08T12:05:52.441Z,48.20
2017-11-08T12:08:20.459Z,56.20
2017-11-08T12:10:48.091Z,46.23
2017-11-08T12:13:15.620Z,50.17
2017-11-08T12:15:43.365Z,50.50
2017-11-08T12:18:10.913Z,45.27
2017-11-08T12:20:38.458Z,40.43
2017-11-08T12:23:06.049Z,43.23
2017-11-08T12:25:33.588Z,50.77
2017-11-08T12:28:01.133Z,44.43
2017-11-08T12:30:28.812Z,50.00
2017-11-08T12:32:56.362Z,45.60
2017-11-08T12:35:24.737Z,48.03
2017-11-08T12:37:52.375Z,50.33
2017-11-08T12:40:20.731Z,45.20
2017-11-08T12:42:50.093Z,51.77
2017-11-08T12:45:18.039Z,48.80
2017-11-08T12:47:45.588Z,39.17
2017-11-08T12:50:13.145Z,51.10
2017-11-08T12:52:40.741Z,46.30
2017-11-08T12:55:08.314Z,49.23
2017-11-08T12:57:36.834Z,50.30
2017-11-08T13:00:05.538Z,44.90
2017-11-08T13:02:33.092Z,47.50
2017-11-08T13:05:00.682Z,42.90
2017-11-08T13:07:28.722Z,46.20
2017-11-08T13:09:56.267Z,46.97
2017-11-08T13:12:23.840Z,43.10
2017-11-08T13:14:51.442Z,47.47
2017-11-08T13:17:18.997Z,42.63
2017-11-08T13:19:46.538Z,45.87
2017-11-08T13:22:14.122Z,45.03
2017-11-08T13:24:41.670Z,44.50
2017-11-08T13:27:09.211Z,38.37
2017-11-08T13:29:36.915Z,41.53
2017-11-08T13:32:04.469Z,40.67
2017-11-08T13:34:32.009Z,41.57
2017-11-08T13:36:59.576Z,39.80
2017-11-08T13:39:27.122Z,43.17
2017-11-08T13:41:54.765Z,41.40
2017-11-08T13:44:22.366Z,39.93
2017-11-08T13:46:49.937Z,41.00
2017-11-08T13:49:17.501Z,40.53
2017-11-08T13:51:45.087Z,41.47
2017-11-08T13:54:12.645Z,38.60
2017-11-08T13:56:40.197Z,39.00
2017-11-08T13:59:07.893Z,36.40
2017-11-08T14:01:35.425Z,37.90
2017-11-08T14:04:06.815Z,41.17
2017-11-08T14:06:34.509Z,36.60
2017-11-08T14:09:02.040Z,39.00
2017-11-08T14:11:29.585Z,41.90
2017-11-08T14:13:57.143Z,33.83
2017-11-08T14:16:24.657Z,41.33
2017-11-08T14:18:52.254Z,42.67
2017-11-08T14:21:19.765Z,40.63
2017-11-08T14:23:47.333Z,39.93
2017-11-08T14:26:14.922Z,36.97
2017-11-08T14:28:42.451Z,40.40
2017-11-08T14:31:09.974Z,39.47
2017-11-08T14:33:37.573Z,38.23
2017-11-08T14:36:11.464Z,41.50
2017-11-08T14:38:39.312Z,41.10
2017-11-08T14:41:06.834Z,35.50
2017-11-08T14:43:34.361Z,39.40
2017-11-08T14:46:01.927Z,39.13
2017-11-08T14:48:29.447Z,39.10
2017-11-08T14:50:57.028Z,38.93
2017-11-08T14:53:24.554Z,42.83
2017-11-08T14:55:52.090Z,40.10
2017-11-08T14:58:19.676Z,37.90
2017-11-08T15:00:47.193Z,41.63
2017-11-08T15:03:14.721Z,38.63
2017-11-08T15:05:42.661Z,40.93
2017-11-08T15:08:10.194Z,37.80
2017-11-08T15:10:37.721Z,36.70
2017-11-08T15:13:05.260Z,38.07
2017-11-08T15:15:33.020Z,38.80
2017-11-08T15:18:00.540Z,37.63
2017-11-08T15:20:28.854Z,38.47
2017-11-08T15:22:56.751Z,35.37
2017-11-08T15:25:24.287Z,36.43
2017-11-08T15:27:51.809Z,39.40
2017-11-08T15:30:24.891Z,35.90
2017-11-08T15:32:52.419Z,38.60
2017-11-08T15:35:20.159Z,35.57
2017-11-08T15:37:47.688Z,38.53
2017-11-08T15:40:31.881Z,34.97
2017-11-08T15:42:59.412Z,41.00
2017-11-08T15:45:26.993Z,39.50
2017-11-08T15:47:54.525Z,40.10
2017-11-08T15:50:22.047Z,36.47
2017-11-08T15:52:50.064Z,38.80
2017-11-08T15:55:17.596Z,38.63
2017-11-08T15:57:45.123Z,37.80
2017-11-08T16:00:12.880Z,36.97
2017-11-08T16:02:40.414Z,37.70
2017-11-08T16:05:07.932Z,40.27
2017-11-08T16:07:35.915Z,39.97
2017-11-08T16:10:03.468Z,40.50
2017-11-08T16:12:30.998Z,36.70
2017-11-08T16:14:58.588Z,36.50
2017-11-08T16:17:26.906Z,42.43
2017-11-08T16:19:54.438Z,36.37
2017-11-08T16:22:22.106Z,37.70
2017-11-08T16:24:49.650Z,36.93
2017-11-08T16:27:17.184Z,36.60
2017-11-08T16:29:44.977Z,41.10
2017-11-08T16:32:20.968Z,40.40
2017-11-08T16:34:48.863Z,36.80
2017-11-08T16:37:16.386Z,40.70
2017-11-08T16:39:43.904Z,42.53
2017-11-08T16:42:11.541Z,40.23
2017-11-08T16:44:39.093Z,38.17
2017-11-08T16:47:06.639Z,40.70
2017-11-08T16:49:34.186Z,39.63
2017-11-08T16:52:01.763Z,48.90
2017-11-08T16:54:29.284Z,46.80
2017-11-08T16:56:56.802Z,41.27
2017-11-08T16:59:24.359Z,38.83
2017-11-08T17:01:51.950Z,39.10
2017-11-08T17:04:19.478Z,37.60
2017-11-08T17:06:47.001Z,38.73
2017-11-08T17:09:14.949Z,44.10
2017-11-08T17:11:42.466Z,41.37
2017-11-08T17:14:09.994Z,43.70
2017-11-08T17:16:37.669Z,57.03
2017-11-08T17:19:05.190Z,45.33
2017-11-08T17:21:32.713Z,41.70
2017-11-08T17:24:00.703Z,46.03
2017-11-08T17:26:28.230Z,43.00
2017-11-08T17:28:55.764Z,38.77
2017-11-08T17:31:23.347Z,38.10
2017-11-08T17:33:50.892Z,42.90
2017-11-08T17:36:18.428Z,41.53
2017-11-08T17:38:46.146Z,39.70
2017-11-08T17:41:13.689Z,42.90
2017-11-08T17:43:41.209Z,37.90
2017-11-08T17:46:08.758Z,36.70
2017-11-08T17:48:38.165Z,36.87
2017-11-08T17:51:05.754Z,35.70
2017-11-08T17:53:33.278Z,38.57
2017-11-08T17:56:00.806Z,35.93
2017-11-08T17:58:28.882Z,39.40
2017-11-08T18:00:56.404Z,37.73
2017-11-08T18:03:23.933Z,35.67
2017-11-08T18:05:51.698Z,36.27
2017-11-08T18:08:19.218Z,35.20
2017-11-08T18:10:46.754Z,37.43
2017-11-08T18:13:14.325Z,34.80
2017-11-08T18:15:41.875Z,35.40
2017-11-08T18:18:09.401Z,33.80
2017-11-08T18:20:37.134Z,37.80
2017-11-08T18:23:04.673Z,35.90
2017-11-08T18:25:32.203Z,35.03
2017-11-08T18:28:00.091Z,35.67
2017-11-08T18:30:27.618Z,33.10
2017-11-08T18:32:55.158Z,49.70
2017-11-08T18:35:22.738Z,41.37
2017-11-08T18:37:50.270Z,41.30
2017-11-08T18:40:17.792Z,38.53
2017-11-08T18:42:45.493Z,40.90
2017-11-08T18:45:13.021Z,32.93
2017-11-08T18:47:40.547Z,34.40
2017-11-08T18:50:08.208Z,36.17
2017-11-08T18:52:35.892Z,31.00
2017-11-08T18:55:03.424Z,35.67
2017-11-08T18:57:30.958Z,35.00
2017-11-08T18:59:58.549Z,32.50
2017-11-08T19:02:26.064Z,32.20
2017-11-08T19:04:53.582Z,32.70
2017-11-08T19:07:21.149Z,34.87
2017-11-08T19:09:48.668Z,35.83
2017-11-08T19:12:16.194Z,35.23
2017-11-08T19:14:43.751Z,35.57
2017-11-08T19:17:11.318Z,35.63
2017-11-08T19:19:38.901Z,34.37
2017-11-08T19:22:06.453Z,32.67
2017-11-08T19:24:34.017Z,39.00
2017-11-08T19:27:01.726Z,36.30
2017-11-08T19:29:29.250Z,33.17
2017-11-08T19:31:56.771Z,36.40
2017-11-08T19:34:24.738Z,32.00
2017-11-08T19:36:52.466Z,38.00
2017-11-08T19:39:20.026Z,35.17
2017-11-08T19:41:47.757Z,34.70
2017-11-08T19:44:15.277Z,33.47
2017-11-08T19:46:42.900Z,34.00
2017-11-08T19:49:10.504Z,33.50
2017-11-08T19:51:38.030Z,34.97
2017-11-08T19:54:05.558Z,37.00
2017-11-08T19:56:33.671Z,35.80
2017-11-08T19:59:01.205Z,36.70
2017-11-08T20:01:28.747Z,40.90
2017-11-08T20:03:56.423Z,37.63
2017-11-08T20:06:23.957Z,37.93
2017-11-08T20:08:51.485Z,37.47
2017-11-08T20:11:19.081Z,35.67
2017-11-08T20:13:46.632Z,35.73
2017-11-08T20:16:14.174Z,39.50
2017-11-08T20:18:41.877Z,35.20
2017-11-08T20:21:09.389Z,38.57
2017-11-08T20:23:36.918Z,37.47
2017-11-08T20:26:04.466Z,35.43
2017-11-08T20:28:31.985Z,32.63
2017-11-08T20:30:59.586Z,32.27
2017-11-08T20:33:27.111Z,33.03
2017-11-08T20:35:54.635Z,34.30
2017-11-08T20:38:22.180Z,35.40
2017-11-08T20:40:49.709Z,33.00
2017-11-08T20:43:17.393Z,33.00
2017-11-08T20:45:44.905Z,35.70
2017-11-08T20:48:12.431Z,35.93
2017-11-08T20:50:40.103Z,33.30
2017-11-08T20:53:07.618Z,35.50
2017-11-08T20:55:35.150Z,33.47
2017-11-08T20:58:02.834Z,33.47
2017-11-08T21:00:30.352Z,33.43
2017-11-08T21:02:57.872Z,34.50
2017-11-08T21:05:25.412Z,36.27
2017-11-08T21:07:52.934Z,32.33
2017-11-08T21:10:20.501Z,36.93
2017-11-08T21:12:48.031Z,33.90
2017-11-08T21:15:15.734Z,35.23
2017-11-08T21:17:43.258Z,35.00
2017-11-08T21:20:10.786Z,34.17
2017-11-08T21:22:38.417Z,33.83
2017-11-08T21:25:06.911Z,34.67
2017-11-08T21:27:34.504Z,37.93
2017-11-08T21:30:02.105Z,35.20
2017-11-08T21:32:29.635Z,33.73
2017-11-08T21:34:57.174Z,35.77
2017-11-08T21:37:24.926Z,34.07
2017-11-08T21:39:52.457Z,36.77
2017-11-08T21:42:19.978Z,36.27
2017-11-08T21:44:47.558Z,35.47
2017-11-08T21:47:15.086Z,35.67
2017-11-08T21:49:42.613Z,36.40
2017-11-08T21:52:10.376Z,37.03
2017-11-08T21:54:37.900Z,32.20
2017-11-08T21:57:05.430Z,36.93
2017-11-08T21:59:33.013Z,35.10
2017-11-08T22:02:00.546Z,35.10
2017-11-08T22:04:28.066Z,34.27
2017-11-08T22:06:55.633Z,35.80
2017-11-08T22:09:23.159Z,35.77
2017-11-08T22:11:50.689Z,34.27
2017-11-08T22:14:19.214Z,35.07
2017-11-08T22:16:46.742Z,34.33
2017-11-08T22:19:14.265Z,36.93
2017-11-08T22:21:42.157Z,34.27
2017-11-08T22:24:09.683Z,33.17
2017-11-08T22:26:37.218Z,37.10
2017-11-08T22:29:04.779Z,36.23
2017-11-08T22:31:32.692Z,34.97
2017-11-08T22:34:00.320Z,38.30
2017-11-08T22:36:27.841Z,37.33
2017-11-08T22:38:55.414Z,36.10
2017-11-08T22:41:22.966Z,38.27
2017-11-08T22:43:50.489Z,37.97
2017-11-08T22:46:18.159Z,34.73
2017-11-08T22:48:45.836Z,36.43
2017-11-08T22:51:13.359Z,36.27
2017-11-08T22:53:40.953Z,35.73
2017-11-08T22:56:08.472Z,35.83
2017-11-08T22:58:36.003Z,33.83
2017-11-08T23:01:03.654Z,33.80
2017-11-08T23:03:31.177Z,36.50
2017-11-08T23:05:58.701Z,35.10
2017-11-08T23:08:26.281Z,33.57
2017-11-08T23:10:53.825Z,37.20
2017-11-08T23:13:21.354Z,35.37
2017-11-08T23:15:49.029Z,39.10
2017-11-08T23:18:16.926Z,39.67
2017-11-08T23:20:44.497Z,36.20
2017-11-08T23:23:12.352Z,37.17
2017-11-08T23:25:40.272Z,36.30
2017-11-08T23:28:08.492Z,35.27
2017-11-08T23:30:36.041Z,34.47
2017-11-08T23:33:03.641Z,41.40
2017-11-08T23:35:31.178Z,34.20
2017-11-08T23:37:58.725Z,34.83
2017-11-08T23:40:26.730Z,37.30
2017-11-08T23:42:54.259Z,34.97
2017-11-08T23:45:21.789Z,35.43
2017-11-08T23:47:49.408Z,37.70
2017-11-08T23:50:17.035Z,38.90
2017-11-08T23:52:44.570Z,35.37
2017-11-08T23:55:12.166Z,35.47
2017-11-08T23:57:39.701Z,34.33
